createdAt,value
2023-05-22T00:00:42.195Z,997.19
2023-05-22T00:01:42.188Z,997.23
2023-05-22T00:02:42.267Z,997.21
2023-05-22T00:03:42.169Z,997.17
2023-05-22T00:04:42.231Z,997.17
2023-05-22T00:05:42.156Z,997.24
2023-05-22T00:06:42.129Z,997.22
2023-05-22T00:07:42.123Z,997.20
2023-05-22T00:08:42.140Z,997.22
2023-05-22T00:09:42.084Z,997.27
2023-05-22T00:10:42.087Z,997.18
2023-05-22T00:11:42.056Z,997.20
2023-05-22T00:12:42.054Z,997.21
2023-05-22T00:13:42.049Z,997.17
2023-05-22T00:14:42.082Z,997.18
2023-05-22T00:15:42.018Z,997.19
2023-05-22T00:16:42.022Z,997.17
2023-05-22T00:17:42.056Z,997.21
2023-05-22T00:18:41.986Z,997.17
2023-05-22T00:19:41.989Z,997.19
2023-05-22T00:20:42.016Z,997.15
2023-05-22T00:21:41.948Z,997.12
2023-05-22T00:22:41.950Z,997.14
2023-05-22T00:23:41.919Z,997.15
2023-05-22T00:24:41.915Z,997.10
2023-05-22T00:25:41.932Z,997.09
2023-05-22T00:26:41.921Z,997.10
2023-05-22T00:27:41.891Z,997.13
2023-05-22T00:28:41.862Z,997.11
2023-05-22T00:29:41.891Z,997.04
2023-05-22T00:30:42.078Z,997.08
2023-05-22T00:31:41.866Z,997.10
2023-05-22T00:32:41.900Z,997.09
2023-05-22T00:33:41.818Z,997.05
2023-05-22T00:34:41.918Z,997.07
2023-05-22T00:35:41.805Z,997.09
2023-05-22T00:36:41.782Z,997.09
2023-05-22T00:37:41.795Z,997.10
2023-05-22T00:38:41.758Z,997.04
2023-05-22T00:39:41.773Z,997.08
2023-05-22T00:40:41.968Z,997.06
2023-05-22T00:41:41.716Z,997.10
2023-05-22T00:42:41.706Z,997.04
2023-05-22T00:43:41.718Z,997.05
2023-05-22T00:44:41.713Z,997.07
2023-05-22T00:45:41.730Z,996.99
2023-05-22T00:46:41.698Z,997.02
2023-05-22T00:47:41.654Z,997.04
2023-05-22T00:48:41.676Z,997.07
2023-05-22T00:49:41.618Z,997.07
2023-05-22T00:50:41.730Z,997.07
2023-05-22T00:51:41.595Z,997.05
2023-05-22T00:52:41.586Z,997.05
2023-05-22T00:53:41.578Z,997.07
2023-05-22T00:54:41.615Z,997.05
2023-05-22T00:55:41.571Z,997.04
2023-05-22T00:56:41.558Z,997.07
2023-05-22T00:57:41.545Z,997.04
2023-05-22T00:58:41.526Z,997.04
2023-05-22T00:59:41.555Z,997.04
2023-05-22T01:00:41.663Z,997.06
2023-05-22T01:01:41.558Z,997.07
2023-05-22T01:02:41.561Z,997.06
2023-05-22T01:03:41.560Z,997.01
2023-05-22T01:04:41.464Z,997.09
2023-05-22T01:05:41.492Z,997.06
2023-05-22T01:06:41.477Z,997.07
2023-05-22T01:07:41.452Z,997.08
2023-05-22T01:08:41.399Z,997.08
2023-05-22T01:09:41.399Z,997.10
2023-05-22T01:10:41.728Z,997.08
2023-05-22T01:11:41.422Z,997.06
2023-05-22T01:12:41.381Z,997.08
2023-05-22T01:13:41.345Z,997.12
2023-05-22T01:14:41.340Z,997.08
2023-05-22T01:15:41.325Z,997.06
2023-05-22T01:16:41.584Z,997.08
2023-05-22T01:17:41.357Z,997.06
2023-05-22T01:18:41.321Z,997.06
2023-05-22T01:19:41.286Z,997.10
2023-05-22T01:20:41.609Z,997.09
2023-05-22T01:21:41.288Z,997.05
2023-05-22T01:22:41.287Z,997.07
2023-05-22T01:23:41.234Z,997.07
2023-05-22T01:24:41.216Z,997.09
2023-05-22T01:25:41.207Z,997.08
2023-05-22T01:26:41.209Z,997.10
2023-05-22T01:27:41.251Z,997.08
2023-05-22T01:28:41.239Z,997.07
2023-05-22T01:29:41.156Z,997.05
2023-05-22T01:30:41.206Z,997.11
2023-05-22T01:31:41.176Z,997.10
2023-05-22T01:32:41.212Z,997.06
2023-05-22T01:33:41.261Z,997.07
2023-05-22T01:34:41.111Z,997.06
2023-05-22T01:35:41.099Z,997.10
2023-05-22T01:36:41.090Z,997.10
2023-05-22T01:37:41.098Z,997.11
2023-05-22T01:38:41.100Z,997.05
2023-05-22T01:39:41.041Z,997.09
2023-05-22T01:40:41.212Z,997.11
2023-05-22T01:41:41.089Z,997.09
2023-05-22T01:42:41.039Z,997.13
2023-05-22T01:43:41.038Z,997.12
2023-05-22T01:44:40.994Z,997.15
2023-05-22T01:45:41.066Z,997.13
2023-05-22T01:46:40.963Z,997.14
2023-05-22T01:47:41.003Z,997.16
2023-05-22T01:48:40.934Z,997.16
2023-05-22T01:49:40.953Z,997.13
2023-05-22T01:50:41.253Z,997.13
2023-05-22T01:51:40.923Z,997.11
2023-05-22T01:52:40.914Z,997.10
2023-05-22T01:53:40.888Z,997.13
2023-05-22T01:54:40.918Z,997.13
2023-05-22T01:55:40.864Z,997.13
2023-05-22T01:56:40.870Z,997.16
2023-05-22T01:57:40.905Z,997.16
2023-05-22T01:58:40.837Z,997.22
2023-05-22T01:59:40.833Z,997.20
2023-05-22T02:00:40.922Z,997.22
2023-05-22T02:01:40.813Z,997.19
2023-05-22T02:02:40.892Z,997.19
2023-05-22T02:03:40.915Z,997.23
2023-05-22T02:04:40.755Z,997.23
2023-05-22T02:05:40.767Z,997.21
2023-05-22T02:06:40.752Z,997.23
2023-05-22T02:07:40.794Z,997.24
2023-05-22T02:08:40.714Z,997.24
2023-05-22T02:09:40.709Z,997.26
2023-05-22T02:10:40.957Z,997.24
2023-05-22T02:11:40.683Z,997.24
2023-05-22T02:12:40.725Z,997.24
2023-05-22T02:13:40.703Z,997.19
2023-05-22T02:14:40.652Z,997.23
2023-05-22T02:15:40.683Z,997.24
2023-05-22T02:16:40.629Z,997.25
2023-05-22T02:17:40.716Z,997.23
2023-05-22T02:18:40.601Z,997.25
2023-05-22T02:19:40.642Z,997.23
2023-05-22T02:20:40.864Z,997.22
2023-05-22T02:21:40.566Z,997.21
2023-05-22T02:22:40.555Z,997.19
2023-05-22T02:23:40.565Z,997.20
2023-05-22T02:24:40.516Z,997.20
2023-05-22T02:25:40.537Z,997.19
2023-05-22T02:26:40.531Z,997.18
2023-05-22T02:27:40.499Z,997.17
2023-05-22T02:28:40.486Z,997.18
2023-05-22T02:29:40.489Z,997.18
2023-05-22T02:30:40.786Z,997.18
2023-05-22T02:31:40.559Z,997.16
2023-05-22T02:32:40.469Z,997.19
2023-05-22T02:33:40.452Z,997.22
2023-05-22T02:34:40.446Z,997.24
2023-05-22T02:35:40.444Z,997.23
2023-05-22T02:36:40.396Z,997.20
2023-05-22T02:37:40.406Z,997.21
2023-05-22T02:38:40.358Z,997.26
2023-05-22T02:39:40.348Z,997.21
2023-05-22T02:40:40.620Z,997.20
2023-05-22T02:41:40.359Z,997.20
2023-05-22T02:42:40.346Z,997.19
2023-05-22T02:43:40.359Z,997.18
2023-05-22T02:44:40.288Z,997.18
2023-05-22T02:45:40.321Z,997.18
2023-05-22T02:46:40.333Z,997.20
2023-05-22T02:47:40.316Z,997.13
2023-05-22T02:48:40.265Z,997.18
2023-05-22T02:49:40.226Z,997.22
2023-05-22T02:50:40.510Z,997.19
2023-05-22T02:51:40.233Z,997.20
2023-05-22T02:52:40.232Z,997.16
2023-05-22T02:53:40.203Z,997.15
2023-05-22T02:54:40.190Z,997.17
2023-05-22T02:55:40.154Z,997.20
2023-05-22T02:56:40.161Z,997.16
2023-05-22T02:57:40.170Z,997.16
2023-05-22T02:58:40.206Z,997.16
2023-05-22T02:59:40.126Z,997.22
2023-05-22T03:00:40.360Z,997.15
2023-05-22T03:01:40.133Z,997.17
2023-05-22T03:02:40.188Z,997.11
2023-05-22T03:03:40.175Z,997.10
2023-05-22T03:04:40.076Z,997.10
2023-05-22T03:05:40.133Z,997.08
2023-05-22T03:06:40.066Z,997.10
2023-05-22T03:07:40.036Z,997.07
2023-05-22T03:08:40.049Z,997.09
2023-05-22T03:09:40.038Z,997.09
2023-05-22T03:10:40.314Z,997.07
2023-05-22T03:11:39.990Z,997.08
2023-05-22T03:12:39.971Z,997.09
2023-05-22T03:13:39.960Z,997.06
2023-05-22T03:14:39.942Z,997.11
2023-05-22T03:15:39.987Z,997.08
2023-05-22T03:16:39.946Z,997.16
2023-05-22T03:17:39.995Z,997.05
2023-05-22T03:18:39.907Z,997.09
2023-05-22T03:19:39.890Z,997.04
2023-05-22T03:20:40.182Z,997.06
2023-05-22T03:21:39.880Z,997.07
2023-05-22T03:22:39.888Z,997.12
2023-05-22T03:23:39.831Z,997.08
2023-05-22T03:24:39.852Z,997.11
2023-05-22T03:25:39.825Z,997.06
2023-05-22T03:26:39.831Z,997.05
2023-05-22T03:27:39.825Z,997.06
2023-05-22T03:28:39.812Z,997.03
2023-05-22T03:29:39.818Z,997.08
2023-05-22T03:30:39.978Z,997.06
2023-05-22T03:31:39.752Z,997.06
2023-05-22T03:32:39.825Z,997.09
2023-05-22T03:33:39.772Z,997.09
2023-05-22T03:34:39.717Z,997.09
2023-05-22T03:35:39.740Z,997.02
2023-05-22T03:36:39.722Z,997.04
2023-05-22T03:37:39.687Z,997.07
2023-05-22T03:38:39.686Z,997.06
2023-05-22T03:39:39.695Z,997.10
2023-05-22T03:40:40.021Z,997.04
2023-05-22T03:41:39.681Z,997.04
2023-05-22T03:42:39.641Z,997.07
2023-05-22T03:43:39.612Z,997.04
2023-05-22T03:44:39.605Z,997.04
2023-05-22T03:45:39.673Z,997.03
2023-05-22T03:46:39.608Z,997.06
2023-05-22T03:47:39.713Z,997.03
2023-05-22T03:48:39.571Z,997.03
2023-05-22T03:49:39.559Z,997.01
2023-05-22T03:50:39.702Z,996.98
2023-05-22T03:51:39.559Z,997.02
2023-05-22T03:52:39.517Z,997.05
2023-05-22T03:53:39.509Z,997.03
2023-05-22T03:54:39.519Z,997.01
2023-05-22T03:55:39.489Z,997.04
2023-05-22T03:56:39.480Z,997.03
2023-05-22T03:57:39.461Z,997.07
2023-05-22T03:58:39.456Z,997.09
2023-05-22T03:59:39.458Z,997.11
2023-05-22T04:00:39.628Z,997.10
2023-05-22T04:01:39.550Z,997.10
2023-05-22T04:02:39.494Z,997.11
2023-05-22T04:03:39.419Z,997.11
2023-05-22T04:04:39.427Z,997.10
2023-05-22T04:05:39.382Z,997.02
2023-05-22T04:06:39.363Z,997.06
2023-05-22T04:07:39.348Z,997.03
2023-05-22T04:08:39.348Z,997.00
2023-05-22T04:09:39.314Z,996.99
2023-05-22T04:10:39.560Z,997.04
2023-05-22T04:11:39.304Z,997.00
2023-05-22T04:12:39.301Z,997.00
2023-05-22T04:13:39.292Z,997.03
2023-05-22T04:14:39.245Z,997.06
2023-05-22T04:15:39.291Z,997.08
2023-05-22T04:16:39.221Z,997.06
2023-05-22T04:17:39.278Z,997.11
2023-05-22T04:18:39.260Z,997.06
2023-05-22T04:19:39.220Z,997.04
2023-05-22T04:20:39.486Z,997.00
2023-05-22T04:21:39.173Z,997.00
2023-05-22T04:22:39.149Z,997.00
2023-05-22T04:23:39.182Z,997.03
2023-05-22T04:24:39.167Z,997.00
2023-05-22T04:25:39.183Z,997.03
2023-05-22T04:26:41.737Z,997.05
2023-05-22T04:27:39.119Z,997.03
2023-05-22T04:28:39.123Z,996.99
2023-05-22T04:29:39.094Z,997.02
2023-05-22T04:30:39.330Z,997.00
2023-05-22T04:31:39.109Z,997.04
2023-05-22T04:32:39.051Z,996.97
2023-05-22T04:33:39.030Z,997.04
2023-05-22T04:34:39.036Z,997.03
2023-05-22T04:35:39.029Z,997.02
2023-05-22T04:36:39.075Z,996.98
2023-05-22T04:37:39.005Z,996.95
2023-05-22T04:38:38.989Z,996.96
2023-05-22T04:39:38.956Z,996.97
2023-05-22T04:40:39.200Z,996.97
2023-05-22T04:41:38.944Z,997.00
2023-05-22T04:42:38.978Z,997.03
2023-05-22T04:43:38.944Z,997.01
2023-05-22T04:44:38.896Z,997.05
2023-05-22T04:45:38.875Z,997.03
2023-05-22T04:46:38.967Z,997.02
2023-05-22T04:47:38.920Z,997.02
2023-05-22T04:48:38.876Z,997.06
2023-05-22T04:49:38.836Z,997.03
2023-05-22T04:50:39.160Z,997.00
2023-05-22T04:51:38.858Z,997.03
2023-05-22T04:52:38.831Z,997.07
2023-05-22T04:53:38.876Z,997.09
2023-05-22T04:54:38.791Z,997.06
2023-05-22T04:55:38.769Z,997.06
2023-05-22T04:56:38.767Z,997.06
2023-05-22T04:57:38.761Z,997.08
2023-05-22T04:58:38.763Z,997.06
2023-05-22T04:59:38.751Z,997.08
2023-05-22T05:00:39.089Z,997.11
2023-05-22T05:01:38.834Z,997.09
2023-05-22T05:02:38.736Z,997.07
2023-05-22T05:03:38.726Z,997.01
2023-05-22T05:04:38.680Z,997.06
2023-05-22T05:05:38.656Z,997.06
2023-05-22T05:06:38.657Z,997.06
2023-05-22T05:07:38.704Z,997.07
2023-05-22T05:08:38.654Z,997.09
2023-05-22T05:09:38.620Z,997.03
2023-05-22T05:10:38.733Z,997.11
2023-05-22T05:11:38.613Z,997.03
2023-05-22T05:12:38.595Z,997.01
2023-05-22T05:13:38.583Z,997.06
2023-05-22T05:14:38.563Z,997.05
2023-05-22T05:15:38.537Z,997.02
2023-05-22T05:16:38.545Z,997.01
2023-05-22T05:17:38.577Z,996.99
2023-05-22T05:18:38.532Z,996.98
2023-05-22T05:19:38.547Z,997.01
2023-05-22T05:20:38.745Z,997.04
2023-05-22T05:21:38.468Z,996.99
2023-05-22T05:22:38.474Z,996.98
2023-05-22T05:23:38.466Z,997.02
2023-05-22T05:24:38.453Z,997.01
2023-05-22T05:25:38.460Z,997.02
2023-05-22T05:26:38.447Z,997.02
2023-05-22T05:27:38.421Z,997.02
2023-05-22T05:28:38.458Z,997.00
2023-05-22T05:29:38.397Z,996.97
2023-05-22T05:30:38.872Z,996.98
2023-05-22T05:31:38.389Z,997.00
2023-05-22T05:32:38.400Z,996.91
2023-05-22T05:33:38.366Z,996.94
2023-05-22T05:34:38.362Z,997.00
2023-05-22T05:35:39.205Z,996.99
2023-05-22T05:36:38.311Z,997.00
2023-05-22T05:37:38.293Z,997.01
2023-05-22T05:38:38.311Z,996.99
2023-05-22T05:39:38.294Z,997.03
2023-05-22T05:40:38.529Z,997.02
2023-05-22T05:41:38.249Z,997.01
2023-05-22T05:42:38.233Z,997.01
2023-05-22T05:43:38.256Z,997.02
2023-05-22T05:44:38.235Z,997.02
2023-05-22T05:45:38.189Z,997.07
2023-05-22T05:46:38.336Z,997.02
2023-05-22T05:47:38.300Z,997.01
2023-05-22T05:48:38.165Z,997.05
2023-05-22T05:49:38.235Z,996.99
2023-05-22T05:50:38.467Z,997.03
2023-05-22T05:51:38.137Z,997.02
2023-05-22T05:52:38.139Z,997.00
2023-05-22T05:53:38.124Z,997.02
2023-05-22T05:54:38.161Z,997.02
2023-05-22T05:55:38.315Z,997.03
2023-05-22T05:56:38.410Z,997.00
2023-05-22T05:57:38.387Z,997.02
2023-05-22T05:58:38.063Z,997.06
2023-05-22T05:59:38.083Z,996.99
2023-05-22T06:00:38.330Z,997.04
2023-05-22T06:01:38.046Z,997.04
2023-05-22T06:02:38.178Z,997.04
2023-05-22T06:03:38.131Z,997.02
2023-05-22T06:04:37.991Z,997.04
2023-05-22T06:05:38.115Z,997.01
2023-05-22T06:06:37.974Z,996.97
2023-05-22T06:07:37.956Z,996.95
2023-05-22T06:08:37.947Z,996.94
2023-05-22T06:09:37.955Z,997.03
2023-05-22T06:10:38.066Z,996.97
2023-05-22T06:11:37.942Z,996.98
2023-05-22T06:12:37.927Z,996.96
2023-05-22T06:13:37.897Z,996.97
2023-05-22T06:14:37.880Z,996.89
2023-05-22T06:15:37.865Z,996.97
2023-05-22T06:16:37.900Z,996.92
2023-05-22T06:17:37.887Z,996.91
2023-05-22T06:18:37.823Z,996.91
2023-05-22T06:19:37.852Z,996.93
2023-05-22T06:20:38.084Z,996.89
2023-05-22T06:21:37.796Z,996.87
2023-05-22T06:22:37.792Z,996.89
2023-05-22T06:23:37.807Z,996.92
2023-05-22T06:24:37.777Z,996.88
2023-05-22T06:25:37.774Z,996.87
2023-05-22T06:26:37.755Z,996.91
2023-05-22T06:27:37.736Z,996.91
2023-05-22T06:28:37.701Z,996.89
2023-05-22T06:29:37.753Z,996.91
2023-05-22T06:30:43.720Z,996.85
2023-05-22T06:31:38.737Z,996.92
2023-05-22T06:32:37.772Z,996.87
2023-05-22T06:33:37.761Z,996.90
2023-05-22T06:34:37.675Z,996.93
2023-05-22T06:35:37.690Z,996.88
2023-05-22T06:36:37.633Z,996.89
2023-05-22T06:37:37.624Z,996.89
2023-05-22T06:38:37.644Z,996.87
2023-05-22T06:39:37.620Z,996.90
2023-05-22T06:40:37.941Z,996.88
2023-05-22T06:41:38.595Z,996.92
2023-05-22T06:42:37.592Z,996.88
2023-05-22T06:43:37.571Z,996.91
2023-05-22T06:44:37.628Z,996.88
2023-05-22T06:45:37.695Z,996.84
2023-05-22T06:46:37.761Z,996.82
2023-05-22T06:47:37.636Z,996.81
2023-05-22T06:48:37.523Z,996.83
2023-05-22T06:49:37.488Z,996.84
2023-05-22T06:50:37.662Z,996.84
2023-05-22T06:51:37.463Z,996.86
2023-05-22T06:52:37.518Z,996.88
2023-05-22T06:53:38.508Z,996.83
2023-05-22T06:54:37.414Z,996.83
2023-05-22T06:55:37.449Z,996.86
2023-05-22T06:56:37.406Z,996.88
2023-05-22T06:57:37.396Z,996.82
2023-05-22T06:58:37.384Z,996.88
2023-05-22T06:59:37.406Z,996.88
2023-05-22T07:00:37.434Z,996.89
2023-05-22T07:01:37.375Z,996.86
2023-05-22T07:02:37.376Z,996.83
2023-05-22T07:03:37.308Z,996.82
2023-05-22T07:04:37.325Z,996.81
2023-05-22T07:05:37.316Z,996.81
2023-05-22T07:06:37.299Z,996.81
2023-05-22T07:07:37.306Z,996.81
2023-05-22T07:08:37.263Z,996.80
2023-05-22T07:09:37.290Z,996.78
2023-05-22T07:10:37.496Z,996.79
2023-05-22T07:11:37.265Z,996.79
2023-05-22T07:12:37.254Z,996.76
2023-05-22T07:13:37.210Z,996.77
2023-05-22T07:14:37.255Z,996.71
2023-05-22T07:15:37.186Z,996.77
2023-05-22T07:16:37.248Z,996.75
2023-05-22T07:17:37.238Z,996.75
2023-05-22T07:18:37.156Z,996.74
2023-05-22T07:19:38.191Z,996.70
2023-05-22T07:20:37.205Z,996.72
2023-05-22T07:21:37.212Z,996.68
2023-05-22T07:22:37.149Z,996.66
2023-05-22T07:23:37.084Z,996.70
2023-05-22T07:24:37.098Z,996.70
2023-05-22T07:25:37.102Z,996.67
2023-05-22T07:26:38.143Z,996.71
2023-05-22T07:27:37.082Z,996.65
2023-05-22T07:28:37.098Z,996.66
2023-05-22T07:29:37.041Z,996.68
2023-05-22T07:30:37.080Z,996.66
2023-05-22T07:31:37.061Z,996.59
2023-05-22T07:32:37.040Z,996.62
2023-05-22T07:33:37.012Z,996.60
2023-05-22T07:34:37.039Z,996.57
2023-05-22T07:35:36.992Z,996.60
2023-05-22T07:36:36.968Z,996.55
2023-05-22T07:37:36.980Z,996.56
2023-05-22T07:38:36.953Z,996.55
2023-05-22T07:39:36.970Z,996.53
2023-05-22T07:40:37.046Z,996.53
2023-05-22T07:41:36.923Z,996.58
2023-05-22T07:42:36.909Z,996.56
2023-05-22T07:43:36.887Z,996.53
2023-05-22T07:44:36.876Z,996.55
2023-05-22T07:45:36.969Z,996.55
2023-05-22T07:46:36.926Z,996.52
2023-05-22T07:47:36.916Z,996.48
2023-05-22T07:48:36.840Z,996.49
2023-05-22T07:49:36.829Z,996.47
2023-05-22T07:50:36.823Z,996.39
2023-05-22T07:51:36.785Z,996.39
2023-05-22T07:52:36.827Z,996.37
2023-05-22T07:53:36.790Z,996.38
2023-05-22T07:54:36.751Z,996.34
2023-05-22T07:55:36.776Z,996.38
2023-05-22T07:56:36.746Z,996.39
2023-05-22T07:57:36.792Z,996.35
2023-05-22T07:58:36.748Z,996.36
2023-05-22T07:59:36.725Z,996.36
2023-05-22T08:00:36.724Z,996.35
2023-05-22T08:01:36.693Z,996.31
2023-05-22T08:02:36.834Z,996.29
2023-05-22T08:03:36.875Z,996.31
2023-05-22T08:04:36.755Z,996.29
2023-05-22T08:05:36.662Z,996.29
2023-05-22T08:06:36.956Z,996.25
2023-05-22T08:07:36.635Z,996.26
2023-05-22T08:08:36.632Z,996.24
2023-05-22T08:09:36.612Z,996.24
2023-05-22T08:10:47.017Z,996.22
2023-05-22T08:11:39.696Z,996.20
2023-05-22T08:12:36.563Z,996.18
2023-05-22T08:13:36.556Z,996.11
2023-05-22T08:14:36.625Z,996.09
2023-05-22T08:15:36.532Z,996.08
2023-05-22T08:16:36.653Z,996.08
2023-05-22T08:17:36.564Z,996.07
2023-05-22T08:18:36.535Z,996.06
2023-05-22T08:19:36.612Z,996.02
2023-05-22T08:20:37.732Z,996.00
2023-05-22T08:21:36.512Z,996.02
2023-05-22T08:22:36.493Z,996.00
2023-05-22T08:23:36.482Z,995.99
2023-05-22T08:24:36.480Z,995.95
2023-05-22T08:25:36.443Z,995.96
2023-05-22T08:26:36.832Z,995.89
2023-05-22T08:27:36.473Z,995.86
2023-05-22T08:28:36.404Z,995.86
2023-05-22T08:29:36.400Z,995.84
2023-05-22T08:30:36.431Z,995.85
2023-05-22T08:31:36.431Z,995.86
2023-05-22T08:32:36.440Z,995.82
2023-05-22T08:33:36.356Z,995.83
2023-05-22T08:34:36.401Z,995.84
2023-05-22T08:35:36.376Z,995.83
2023-05-22T08:36:36.322Z,995.81
2023-05-22T08:37:36.311Z,995.83
2023-05-22T08:38:36.342Z,995.85
2023-05-22T08:39:36.286Z,995.81
2023-05-22T08:40:36.318Z,995.80
2023-05-22T08:41:36.309Z,995.81
2023-05-22T08:42:36.261Z,995.80
2023-05-22T08:43:36.247Z,995.80
2023-05-22T08:44:36.280Z,995.81
2023-05-22T08:45:36.256Z,995.82
2023-05-22T08:46:36.284Z,995.81
2023-05-22T08:47:36.617Z,995.75
2023-05-22T08:48:36.434Z,995.70
2023-05-22T08:49:36.201Z,995.69
2023-05-22T08:50:36.203Z,995.60
2023-05-22T08:51:36.165Z,995.60
2023-05-22T08:52:36.204Z,995.55
2023-05-22T08:53:36.166Z,995.53
2023-05-22T08:54:36.192Z,995.53
2023-05-22T08:55:36.155Z,995.51
2023-05-22T08:56:39.870Z,995.49
2023-05-22T08:57:37.173Z,995.46
2023-05-22T08:58:36.122Z,995.39
2023-05-22T08:59:36.106Z,995.34
2023-05-22T09:00:36.108Z,995.35
2023-05-22T09:01:36.122Z,995.31
2023-05-22T09:02:36.110Z,995.28
2023-05-22T09:03:36.140Z,995.22
2023-05-22T09:04:36.105Z,995.19
2023-05-22T09:05:36.083Z,995.14
2023-05-22T09:06:36.023Z,995.10
2023-05-22T09:07:36.015Z,995.05
2023-05-22T09:08:36.044Z,995.00
2023-05-22T09:09:36.017Z,995.04
2023-05-22T09:10:36.047Z,994.93
2023-05-22T09:11:36.048Z,994.97
2023-05-22T09:12:35.967Z,994.95
2023-05-22T09:13:35.978Z,994.86
2023-05-22T09:14:35.976Z,994.89
2023-05-22T09:15:35.989Z,994.88
2023-05-22T09:16:36.024Z,994.87
2023-05-22T09:17:35.949Z,994.88
2023-05-22T09:18:35.957Z,994.84
2023-05-22T09:19:36.075Z,994.86
2023-05-22T09:20:35.914Z,994.88
2023-05-22T09:21:35.925Z,994.87
2023-05-22T09:22:35.909Z,994.88
2023-05-22T09:23:35.877Z,994.88
2023-05-22T09:24:35.876Z,994.89
2023-05-22T09:25:35.837Z,994.90
2023-05-22T09:26:35.874Z,994.91
2023-05-22T09:27:36.855Z,994.85
2023-05-22T09:28:35.986Z,994.87
2023-05-22T09:29:35.848Z,994.83
2023-05-22T09:30:35.882Z,994.77
2023-05-22T09:31:35.815Z,994.80
2023-05-22T09:32:35.843Z,994.77
2023-05-22T09:33:35.778Z,994.77
2023-05-22T09:34:35.770Z,994.75
2023-05-22T09:35:35.877Z,994.81
2023-05-22T09:36:36.935Z,994.83
2023-05-22T09:37:35.758Z,994.79
2023-05-22T09:38:35.721Z,994.83
2023-05-22T09:39:35.753Z,994.92
2023-05-22T09:40:35.714Z,994.89
2023-05-22T09:41:35.713Z,995.03
2023-05-22T09:42:35.752Z,995.03
2023-05-22T09:43:35.680Z,995.08
2023-05-22T09:44:35.674Z,995.13
2023-05-22T09:45:35.934Z,995.11
2023-05-22T09:46:35.655Z,995.07
2023-05-22T09:47:35.708Z,995.09
2023-05-22T09:48:35.654Z,995.04
2023-05-22T09:49:35.631Z,995.06
2023-05-22T09:50:35.652Z,995.06
2023-05-22T09:51:35.625Z,995.04
2023-05-22T09:52:35.589Z,995.08
2023-05-22T09:53:35.595Z,995.08
2023-05-22T09:54:35.602Z,995.04
2023-05-22T09:55:35.569Z,995.05
2023-05-22T09:56:39.912Z,995.08
2023-05-22T09:57:35.546Z,995.11
2023-05-22T09:58:35.537Z,995.10
2023-05-22T09:59:35.551Z,995.03
2023-05-22T10:00:35.548Z,995.02
2023-05-22T10:01:35.592Z,995.02
2023-05-22T10:02:35.523Z,995.06
2023-05-22T10:03:35.497Z,994.94
2023-05-22T10:04:35.544Z,994.98
2023-05-22T10:05:35.516Z,994.96
2023-05-22T10:06:35.505Z,994.96
2023-05-22T10:07:35.484Z,994.90
2023-05-22T10:08:35.455Z,994.89
2023-05-22T10:09:35.438Z,994.91
2023-05-22T10:10:35.471Z,994.90
2023-05-22T10:11:35.409Z,994.82
2023-05-22T10:12:35.411Z,994.78
2023-05-22T10:13:35.416Z,994.80
2023-05-22T10:14:35.394Z,994.76
2023-05-22T10:15:35.580Z,994.76
2023-05-22T10:16:35.405Z,994.79
2023-05-22T10:17:35.452Z,994.79
2023-05-22T10:18:35.355Z,994.80
2023-05-22T10:19:36.636Z,994.81
2023-05-22T10:20:35.325Z,994.81
2023-05-22T10:21:35.340Z,994.80
2023-05-22T10:22:35.328Z,994.78
2023-05-22T10:23:35.298Z,994.77
2023-05-22T10:24:35.288Z,994.74
2023-05-22T10:25:35.282Z,994.74
2023-05-22T10:26:35.296Z,994.79
2023-05-22T10:27:35.339Z,994.79
2023-05-22T10:28:35.490Z,994.84
2023-05-22T10:29:35.293Z,994.84
2023-05-22T10:30:35.239Z,994.87
2023-05-22T10:31:35.234Z,994.90
2023-05-22T10:32:35.649Z,994.95
2023-05-22T10:33:35.295Z,994.93
2023-05-22T10:34:35.201Z,994.91
2023-05-22T10:35:35.174Z,994.88
2023-05-22T10:36:35.233Z,994.90
2023-05-22T10:37:35.169Z,994.85
2023-05-22T10:38:35.826Z,994.82
2023-05-22T10:39:35.145Z,994.81
2023-05-22T10:40:36.144Z,994.88
2023-05-22T10:41:35.189Z,994.82
2023-05-22T10:42:35.116Z,994.85
2023-05-22T10:43:35.115Z,994.88
2023-05-22T10:44:35.322Z,994.84
2023-05-22T10:45:35.165Z,994.83
2023-05-22T10:46:35.139Z,994.89
2023-05-22T10:47:35.134Z,994.87
2023-05-22T10:48:35.063Z,994.85
2023-05-22T10:49:35.108Z,994.85
2023-05-22T10:50:35.285Z,994.89
2023-05-22T10:51:35.019Z,994.80
2023-05-22T10:52:35.008Z,994.73
2023-05-22T10:53:35.024Z,994.71
2023-05-22T10:54:35.029Z,994.71
2023-05-22T10:55:34.989Z,994.64
2023-05-22T10:56:34.970Z,994.63
2023-05-22T10:57:34.956Z,994.59
2023-05-22T10:58:34.980Z,994.54
2023-05-22T10:59:35.014Z,994.54
2023-05-22T11:00:34.945Z,994.53
2023-05-22T11:01:35.025Z,994.52
2023-05-22T11:02:34.962Z,994.54
2023-05-22T11:03:34.917Z,994.51
2023-05-22T11:04:35.341Z,994.52
2023-05-22T11:05:34.901Z,994.50
2023-05-22T11:06:34.897Z,994.44
2023-05-22T11:07:34.867Z,994.44
2023-05-22T11:08:34.886Z,994.45
2023-05-22T11:09:34.862Z,994.45
2023-05-22T11:10:34.864Z,994.41
2023-05-22T11:11:34.847Z,994.44
2023-05-22T11:12:34.822Z,994.41
2023-05-22T11:13:34.841Z,994.29
2023-05-22T11:14:34.826Z,994.26
2023-05-22T11:15:34.812Z,994.25
2023-05-22T11:16:34.849Z,994.23
2023-05-22T11:17:34.855Z,994.21
2023-05-22T11:18:34.761Z,994.26
2023-05-22T11:19:34.902Z,994.26
2023-05-22T11:20:34.762Z,994.17
2023-05-22T11:21:34.745Z,994.15
2023-05-22T11:22:34.762Z,994.11
2023-05-22T11:23:34.728Z,994.08
2023-05-22T11:24:34.714Z,994.07
2023-05-22T11:25:34.743Z,993.99
2023-05-22T11:26:34.738Z,993.94
2023-05-22T11:27:34.683Z,993.96
2023-05-22T11:28:34.693Z,993.91
2023-05-22T11:29:34.704Z,993.93
2023-05-22T11:30:34.680Z,993.92
2023-05-22T11:31:34.725Z,993.91
2023-05-22T11:32:34.665Z,993.91
2023-05-22T11:33:34.635Z,993.83
2023-05-22T11:34:34.660Z,993.82
2023-05-22T11:35:34.652Z,993.77
2023-05-22T11:36:34.603Z,993.75
2023-05-22T11:37:34.609Z,993.71
2023-05-22T11:38:34.591Z,993.69
2023-05-22T11:39:34.567Z,993.71
2023-05-22T11:40:34.626Z,993.70
2023-05-22T11:41:34.544Z,993.86
2023-05-22T11:42:34.555Z,994.01
2023-05-22T11:43:34.540Z,993.99
2023-05-22T11:44:34.558Z,994.14
2023-05-22T11:45:34.538Z,994.23
2023-05-22T11:46:34.584Z,994.32
2023-05-22T11:47:34.544Z,994.31
2023-05-22T11:48:34.490Z,994.36
2023-05-22T11:49:34.472Z,994.37
2023-05-22T11:51:35.483Z,994.25
2023-05-22T11:52:34.454Z,994.26
2023-05-22T11:53:34.446Z,994.28
2023-05-22T11:54:35.812Z,994.24
2023-05-22T11:55:34.456Z,994.26
2023-05-22T11:56:34.384Z,994.24
2023-05-22T11:57:34.429Z,994.24
2023-05-22T11:58:34.371Z,994.21
2023-05-22T11:59:34.410Z,994.24
2023-05-22T12:00:34.450Z,994.19
2023-05-22T12:01:34.343Z,994.28
2023-05-22T12:02:34.469Z,994.26
2023-05-22T12:03:34.546Z,994.21
2023-05-22T12:04:34.348Z,994.21
2023-05-22T12:05:34.324Z,994.23
2023-05-22T12:06:34.308Z,994.20
2023-05-22T12:07:34.281Z,994.21
2023-05-22T12:08:34.260Z,994.21
2023-05-22T12:09:34.266Z,994.21
2023-05-22T12:10:34.298Z,994.20
2023-05-22T12:11:34.225Z,994.19
2023-05-22T12:12:34.230Z,994.23
2023-05-22T12:13:34.229Z,994.22
2023-05-22T12:14:34.230Z,994.15
2023-05-22T12:15:34.199Z,994.16
2023-05-22T12:16:34.303Z,994.12
2023-05-22T12:17:34.223Z,994.11
2023-05-22T12:18:34.201Z,994.09
2023-05-22T12:19:34.164Z,994.17
2023-05-22T12:20:34.145Z,994.22
2023-05-22T12:21:34.119Z,994.13
2023-05-22T12:22:34.105Z,994.13
2023-05-22T12:23:34.148Z,994.14
2023-05-22T12:24:34.124Z,994.09
2023-05-22T12:25:34.113Z,994.15
2023-05-22T12:26:34.074Z,994.16
2023-05-22T12:27:35.352Z,994.09
2023-05-22T12:28:34.066Z,994.08
2023-05-22T12:29:34.078Z,994.14